Time;durP1;ratioP1;P1;durP2;ratioP2;P2;SDS_P1;SDS_P2;PMS_P1;PMS_P2;Temp;Humidity;BMP_temperature;BMP_pressure;BME280_temperature;BME280_humidity;BME280_pressure;Samples;Min_cycle;Max_cycle;Signal;HPM_P1;HPM_P2
2022/05/02 00:00:42;;;;;;;28.48;18.45;;;11.10;67.90;;;;;;5070885;28;20541;-85
2022/05/02 00:03:08;;;;;;;25.20;19.05;;;11.10;68.10;;;;;;5052154;28;20267;-85
2022/05/02 00:05:34;;;;;;;28.15;21.70;;;11.10;68.10;;;;;;5049947;28;20196;-85
2022/05/02 00:08:01;;;;;;;25.60;18.65;;;11.00;68.50;;;;;;5055823;28;20553;-83
2022/05/02 00:10:26;;;;;;;29.38;19.95;;;11.00;68.50;;;;;;5068047;28;20208;-84
2022/05/02 00:12:53;;;;;;;22.57;18.60;;;11.00;68.90;;;;;;5068349;28;20200;-85
2022/05/02 00:15:20;;;;;;;26.23;19.88;;;10.90;68.70;;;;;;5056384;28;20224;-85
2022/05/02 00:17:58;;;;;;;26.33;19.70;;;10.90;68.50;;;;;;5074305;28;20893;-84
2022/05/02 00:20:31;;;;;;;31.95;20.63;;;10.90;68.40;;;;;;5050290;28;20189;-85
2022/05/02 00:22:58;;;;;;;27.33;18.58;;;10.90;68.50;;;;;;5032083;28;20192;-84
2022/05/02 00:25:25;;;;;;;28.02;20.58;;;11.00;68.30;;;;;;5055928;28;20193;-85
2022/05/02 00:27:51;;;;;;;28.00;20.13;;;10.90;68.50;;;;;;5051044;28;20196;-83
2022/05/02 00:30:17;;;;;;;29.07;19.37;;;10.80;68.90;;;;;;5056887;28;20266;-84
2022/05/02 00:32:44;;;;;;;27.17;19.50;;;10.90;69.50;;;;;;5054984;28;20451;-84
2022/05/02 00:35:11;;;;;;;28.90;19.80;;;10.80;69.00;;;;;;5072672;28;20211;-83
2022/05/02 00:37:38;;;;;;;28.65;20.90;;;10.70;69.70;;;;;;5057363;28;20176;-85
2022/05/02 00:40:06;;;;;;;29.58;20.77;;;10.80;69.50;;;;;;5057327;28;20176;-84
2022/05/02 00:42:32;;;;;;;29.08;20.05;;;10.70;69.90;;;;;;5056024;28;20215;-84
2022/05/02 00:44:57;;;;;;;29.73;20.97;;;10.70;70.20;;;;;;5056193;28;20188;-84
2022/05/02 00:47:23;;;;;;;30.67;21.50;;;10.70;69.90;;;;;;5056986;28;20286;-84
2022/05/02 00:49:49;;;;;;;30.70;22.27;;;10.70;69.80;;;;;;5053622;28;20173;-84
2022/05/02 00:52:16;;;;;;;29.02;18.63;;;10.70;69.50;;;;;;5074847;28;20491;-85
2022/05/02 00:54:43;;;;;;;27.73;19.27;;;10.70;69.70;;;;;;5060089;28;20207;-85
2022/05/02 00:57:13;;;;;;;28.55;19.55;;;10.60;69.90;;;;;;5056742;28;20180;-85
2022/05/02 00:59:39;;;;;;;29.38;22.05;;;10.60;70.10;;;;;;5022933;28;20271;-84
2022/05/02 01:02:07;;;;;;;29.40;22.15;;;10.60;70.50;;;;;;5055723;28;20283;-85
2022/05/02 01:04:33;;;;;;;28.20;20.75;;;10.50;70.90;;;;;;5055915;28;20649;-85
2022/05/02 01:07:08;;;;;;;29.33;20.30;;;10.50;71.10;;;;;;5055238;28;20557;-85
2022/05/02 01:09:39;;;;;;;29.02;21.05;;;10.60;70.70;;;;;;5057181;28;20164;-85
2022/05/02 01:12:07;;;;;;;36.15;21.02;;;10.60;70.10;;;;;;5071659;28;20200;-85
2022/05/02 01:14:34;;;;;;;31.48;19.92;;;10.50;70.40;;;;;;5057285;28;20181;-85
2022/05/02 01:17:01;;;;;;;29.08;19.83;;;10.50;70.80;;;;;;5058332;28;20184;-85
2022/05/02 01:19:27;;;;;;;25.95;19.92;;;10.50;71.00;;;;;;5057970;28;20196;-85
2022/05/02 01:21:52;;;;;;;30.57;23.20;;;10.50;70.60;;;;;;5050738;28;20208;-85
2022/05/02 01:24:18;;;;;;;30.33;20.80;;;10.40;70.90;;;;;;5055914;28;20192;-85
2022/05/02 01:26:44;;;;;;;28.17;21.63;;;10.50;70.40;;;;;;5053267;28;20191;-85
2022/05/02 01:29:09;;;;;;;27.03;20.40;;;10.40;70.40;;;;;;5055931;28;20185;-85
2022/05/02 01:31:35;;;;;;;31.73;21.37;;;10.50;70.50;;;;;;5071026;28;20204;-85
2022/05/02 01:34:01;;;;;;;28.87;21.60;;;10.40;70.70;;;;;;5053859;28;20430;-85
2022/05/02 01:36:27;;;;;;;32.93;20.83;;;10.30;71.10;;;;;;5039731;28;20187;-84
2022/05/02 01:38:53;;;;;;;29.15;22.88;;;10.30;72.00;;;;;;5055818;28;20177;-84
2022/05/02 01:41:19;;;;;;;35.55;23.70;;;10.20;71.60;;;;;;5055371;28;20203;-84
2022/05/02 01:43:45;;;;;;;32.67;21.25;;;10.10;72.10;;;;;;5053641;28;20172;-84
2022/05/02 01:46:12;;;;;;;28.03;21.30;;;10.20;72.40;;;;;;5055844;28;20707;-85
2022/05/02 01:48:38;;;;;;;29.63;22.80;;;10.10;72.50;;;;;;5073981;28;20423;-85
2022/05/02 01:51:06;;;;;;;32.97;24.97;;;10.20;72.50;;;;;;5070092;28;20704;-83
2022/05/02 01:53:32;;;;;;;36.22;22.30;;;10.10;72.60;;;;;;5044140;28;20439;-85
2022/05/02 01:55:58;;;;;;;36.20;21.30;;;10.10;72.50;;;;;;5052015;28;20185;-84
2022/05/02 01:58:23;;;;;;;31.77;22.97;;;10.10;72.60;;;;;;5058743;28;20428;-84
2022/05/02 02:00:49;;;;;;;30.07;22.27;;;10.10;72.70;;;;;;5063372;28;20435;-84
2022/05/02 02:03:15;;;;;;;39.80;24.10;;;10.10;72.80;;;;;;5067073;28;20173;-83
2022/05/02 02:05:50;;;;;;;29.70;21.00;;;10.10;72.70;;;;;;5071399;28;20423;-83
2022/05/02 02:08:22;;;;;;;29.83;21.10;;;10.10;72.60;;;;;;5083889;28;20161;-84
2022/05/02 02:10:49;;;;;;;34.65;21.38;;;10.10;72.50;;;;;;5073619;28;20330;-84
2022/05/02 02:13:16;;;;;;;32.28;22.92;;;10.10;72.50;;;;;;5072111;28;20775;-84
2022/05/02 02:15:42;;;;;;;31.23;23.63;;;10.10;72.60;;;;;;5090864;28;20181;-84
2022/05/02 02:18:08;;;;;;;34.37;23.73;;;10.00;72.70;;;;;;5067971;28;20203;-84
2022/05/02 02:20:36;;;;;;;36.30;22.20;;;9.90;72.70;;;;;;5065996;28;20808;-84
2022/05/02 02:23:03;;;;;;;33.35;23.40;;;9.90;72.90;;;;;;5081138;28;20419;-83
2022/05/02 02:25:29;;;;;;;28.70;20.85;;;9.90;72.90;;;;;;5061971;28;20242;-84
2022/05/02 02:27:55;;;;;;;30.43;22.60;;;10.00;73.00;;;;;;5077343;28;20598;-84
2022/05/02 02:30:21;;;;;;;32.37;23.07;;;9.90;72.90;;;;;;5061215;28;20816;-83
2022/05/02 02:32:47;;;;;;;35.28;23.95;;;9.90;73.00;;;;;;5060824;28;20460;-83
2022/05/02 02:35:12;;;;;;;32.63;22.77;;;9.90;73.00;;;;;;5065561;28;20181;-83
2022/05/02 02:37:39;;;;;;;33.20;23.63;;;9.80;72.90;;;;;;5064326;28;20250;-84
2022/05/02 02:40:09;;;;;;;31.88;22.65;;;9.90;73.00;;;;;;5069842;28;20437;-84
2022/05/02 02:42:35;;;;;;;29.85;22.00;;;9.90;73.00;;;;;;5072171;28;20227;-84
2022/05/02 02:45:01;;;;;;;31.85;22.88;;;9.80;72.80;;;;;;5085421;28;20259;-83
2022/05/02 02:47:26;;;;;;;31.17;22.40;;;9.80;72.90;;;;;;5065143;28;20215;-83
2022/05/02 02:49:52;;;;;;;30.37;21.50;;;9.90;72.90;;;;;;5074942;28;20197;-84
2022/05/02 02:52:18;;;;;;;34.00;23.80;;;9.80;72.80;;;;;;5057195;28;20199;-84
2022/05/02 02:54:44;;;;;;;33.27;24.07;;;9.80;72.90;;;;;;5051108;28;20422;-84
2022/05/02 02:57:09;;;;;;;32.63;21.37;;;9.80;72.80;;;;;;5068472;28;20169;-85
2022/05/02 02:59:35;;;;;;;33.93;24.60;;;9.80;72.80;;;;;;5058032;28;20207;-84
2022/05/02 03:02:01;;;;;;;33.50;23.70;;;9.70;72.90;;;;;;5058508;28;20196;-85
2022/05/02 03:07:12;;;;;;;31.80;22.23;;;9.70;73.20;;;;;;5068740;28;20192;-85
2022/05/02 03:09:38;;;;;;;32.95;23.63;;;9.70;73.10;;;;;;5090474;28;20176;-85
2022/05/02 03:12:05;;;;;;;31.77;22.90;;;9.70;73.30;;;;;;5067676;28;20204;-85
2022/05/02 03:14:30;;;;;;;29.98;22.33;;;9.70;73.20;;;;;;5073156;28;20222;-86
2022/05/02 03:16:56;;;;;;;34.53;22.80;;;9.60;73.30;;;;;;5052346;28;20602;-85
2022/05/02 03:19:22;;;;;;;31.80;22.10;;;9.70;72.60;;;;;;5057124;28;20173;-85
2022/05/02 03:21:47;;;;;;;28.77;22.37;;;9.70;72.10;;;;;;5057513;28;20210;-85
2022/05/02 03:24:13;;;;;;;35.17;22.83;;;9.60;71.90;;;;;;5057359;28;20817;-85
2022/05/02 03:26:39;;;;;;;30.60;23.00;;;9.70;71.80;;;;;;5069286;28;20233;-85
2022/05/02 03:29:04;;;;;;;34.10;22.80;;;9.60;72.00;;;;;;5050707;28;20180;-85
2022/05/02 03:31:31;;;;;;;32.17;23.20;;;9.60;72.10;;;;;;5056832;28;20458;-85
2022/05/02 03:33:57;;;;;;;30.45;22.58;;;9.60;72.30;;;;;;5058165;28;20173;-85
2022/05/02 03:36:22;;;;;;;35.40;22.90;;;9.60;72.50;;;;;;5058567;28;20195;-84
2022/05/02 03:38:48;;;;;;;33.20;23.40;;;9.50;72.70;;;;;;5058393;28;20844;-84
2022/05/02 03:41:14;;;;;;;39.10;24.20;;;9.50;72.90;;;;;;5070646;28;20526;-84
2022/05/02 03:43:40;;;;;;;33.63;24.00;;;9.40;73.10;;;;;;5053081;28;20180;-84
2022/05/02 03:46:06;;;;;;;31.70;21.60;;;9.50;73.00;;;;;;5059068;28;20434;-84
2022/05/02 03:48:32;;;;;;;35.13;24.00;;;9.50;73.20;;;;;;5071598;28;20185;-84
2022/05/02 03:50:57;;;;;;;31.70;24.17;;;9.40;73.10;;;;;;5077781;28;20592;-84
2022/05/02 03:53:23;;;;;;;35.33;23.40;;;9.40;73.30;;;;;;5053171;28;20551;-84
2022/05/02 03:55:49;;;;;;;32.30;23.23;;;9.40;73.40;;;;;;5059561;28;20184;-84
2022/05/02 03:58:15;;;;;;;32.90;25.07;;;9.40;73.30;;;;;;5059601;28;20176;-82
2022/05/02 04:00:40;;;;;;;32.40;22.20;;;9.30;73.40;;;;;;5054353;28;20279;-84
2022/05/02 04:03:06;;;;;;;30.93;23.10;;;9.30;73.40;;;;;;5058934;28;20682;-84
2022/05/02 04:05:32;;;;;;;34.37;24.30;;;9.30;73.40;;;;;;5045432;28;20432;-84
2022/05/02 04:07:57;;;;;;;33.60;25.83;;;9.30;73.40;;;;;;5055010;28;20180;-85
2022/05/02 04:10:24;;;;;;;35.30;25.30;;;9.30;73.70;;;;;;5057064;28;20288;-85
2022/05/02 04:12:50;;;;;;;34.92;23.52;;;9.30;73.70;;;;;;5058775;28;20227;-85
2022/05/02 04:15:17;;;;;;;31.10;23.30;;;9.20;73.70;;;;;;5062277;28;20172;-84
2022/05/02 04:17:43;;;;;;;31.13;23.08;;;9.20;74.00;;;;;;5058185;28;20648;-85
2022/05/02 04:20:09;;;;;;;32.67;24.77;;;9.20;74.10;;;;;;5059857;28;20175;-84
2022/05/02 04:22:38;;;;;;;33.83;24.98;;;9.20;74.10;;;;;;5056842;28;20504;-84
2022/05/02 04:25:04;;;;;;;32.58;22.75;;;9.20;74.30;;;;;;5072455;28;20196;-85
2022/05/02 04:27:30;;;;;;;34.20;23.90;;;9.20;74.20;;;;;;5077145;28;20710;-84
2022/05/02 04:29:56;;;;;;;36.45;25.05;;;9.20;74.00;;;;;;5054155;28;20184;-84
2022/05/02 04:32:22;;;;;;;32.50;23.33;;;9.30;74.00;;;;;;5058917;28;20211;-84
2022/05/02 04:34:48;;;;;;;31.90;25.20;;;9.20;73.90;;;;;;5041899;28;20208;-84
2022/05/02 04:37:14;;;;;;;36.30;25.17;;;9.20;73.90;;;;;;5065141;28;20187;-84
2022/05/02 04:39:40;;;;;;;37.92;25.48;;;9.20;73.90;;;;;;5087568;28;20163;-85
2022/05/02 04:42:06;;;;;;;37.50;25.00;;;9.30;74.00;;;;;;5054955;28;20208;-85
2022/05/02 04:44:34;;;;;;;41.08;26.73;;;9.30;73.70;;;;;;5056671;28;20180;-85
2022/05/02 04:47:00;;;;;;;34.90;25.52;;;9.30;73.70;;;;;;5055710;28;20180;-84
2022/05/02 04:49:25;;;;;;;33.33;23.20;;;9.40;73.40;;;;;;5056972;28;20185;-84
2022/05/02 04:51:51;;;;;;;34.80;24.93;;;9.30;73.30;;;;;;5074608;28;20369;-84
2022/05/02 04:54:17;;;;;;;32.13;23.27;;;9.40;73.20;;;;;;5059901;28;20173;-83
2022/05/02 04:56:42;;;;;;;34.80;22.77;;;9.50;73.40;;;;;;5059565;28;20180;-85
2022/05/02 04:59:08;;;;;;;34.97;23.97;;;9.50;73.10;;;;;;5063953;28;20894;-84
2022/05/02 05:01:34;;;;;;;36.30;26.73;;;9.50;72.80;;;;;;5063392;28;20631;-84
2022/05/02 05:04:00;;;;;;;34.03;26.30;;;9.60;72.60;;;;;;5079178;28;20187;-84
2022/05/02 05:06:25;;;;;;;33.97;25.17;;;9.60;72.40;;;;;;5062304;28;20186;-84
2022/05/02 05:08:52;;;;;;;34.00;25.53;;;9.70;72.10;;;;;;5082643;28;20419;-84
2022/05/02 05:11:27;;;;;;;39.42;26.25;;;9.70;71.90;;;;;;5061091;28;20231;-84
2022/05/02 05:17:30;;;;;;;32.35;23.30;;;9.70;71.80;;;;;;5031325;28;20178;-83
2022/05/02 05:20:10;;;;;;;40.83;26.15;;;9.70;71.30;;;;;;5031503;28;20177;-84
2022/05/02 05:22:50;;;;;;;34.13;26.00;;;9.70;71.40;;;;;;5027947;28;20181;-86
2022/05/02 05:25:42;;;;;;;37.15;24.58;;;9.80;71.20;;;;;;5055921;28;20896;-85
2022/05/02 05:28:25;;;;;;;30.95;22.90;;;9.90;70.70;;;;;;5054368;28;20192;-84
2022/05/02 05:31:03;;;;;;;33.17;23.15;;;10.00;70.50;;;;;;5071602;28;20199;-85
2022/05/02 05:33:51;;;;;;;30.20;22.33;;;10.20;69.70;;;;;;5048028;28;20279;-84
2022/05/02 05:36:22;;;;;;;31.70;23.17;;;10.90;68.20;;;;;;5058539;28;20271;-85
2022/05/02 05:39:04;;;;;;;29.80;22.73;;;11.60;66.00;;;;;;5078197;28;20173;-85
2022/05/02 05:41:58;;;;;;;27.65;21.98;;;12.40;63.20;;;;;;5078991;28;20238;-85
2022/05/02 05:44:26;;;;;;;32.40;22.25;;;12.90;61.00;;;;;;5061642;28;20289;-85
2022/05/02 05:47:14;;;;;;;27.40;20.00;;;13.50;58.70;;;;;;5060694;28;20238;-85
2022/05/02 05:49:55;;;;;;;31.20;22.05;;;14.10;57.20;;;;;;5053036;28;20640;-85
2022/05/02 05:52:40;;;;;;;30.20;22.52;;;14.60;55.20;;;;;;5049185;28;20197;-85
2022/05/02 05:55:09;;;;;;;23.50;19.55;;;15.00;53.30;;;;;;5054025;28;20199;-84
2022/05/02 05:58:02;;;;;;;38.38;23.63;;;15.40;52.90;;;;;;5075533;28;20192;-84
2022/05/02 06:00:34;;;;;;;33.92;22.42;;;15.50;51.50;;;;;;5089518;28;20207;-84
2022/05/02 06:03:17;;;;;;;29.70;23.27;;;15.50;51.70;;;;;;5065782;28;20173;-84
2022/05/02 06:05:47;;;;;;;32.25;22.45;;;15.60;51.00;;;;;;5065096;28;20176;-85
2022/05/02 06:08:22;;;;;;;33.97;22.30;;;15.60;50.90;;;;;;5068966;28;20184;-85
2022/05/02 06:10:53;;;;;;;33.28;23.08;;;15.50;51.10;;;;;;5058994;28;20292;-86
2022/05/02 06:13:19;;;;;;;31.77;23.90;;;15.50;50.70;;;;;;5066286;28;20574;-86
2022/05/02 06:18:36;;;;;;;33.72;21.92;;;15.40;50.90;;;;;;5072500;28;20579;-83
2022/05/02 06:21:04;;;;;;;30.75;22.00;;;15.40;51.20;;;;;;5068518;28;20677;-83
2022/05/02 06:23:42;;;;;;;31.92;21.75;;;15.80;50.30;;;;;;5054344;28;20192;-85
2022/05/02 06:26:09;;;;;;;31.20;21.23;;;15.90;49.70;;;;;;5090789;28;20180;-87
2022/05/02 06:28:45;;;;;;;26.50;19.88;;;16.20;49.10;;;;;;5078677;28;20233;-88
2022/05/02 06:31:18;;;;;;;29.65;20.88;;;16.40;48.20;;;;;;5097505;28;20184;-87
2022/05/02 06:33:48;;;;;;;27.40;20.10;;;16.70;47.30;;;;;;5096845;28;20152;-88
2022/05/02 06:36:20;;;;;;;27.92;20.60;;;16.80;47.40;;;;;;5100547;28;20175;-87
2022/05/02 06:39:07;;;;;;;25.00;20.70;;;16.80;47.60;;;;;;5078962;28;20182;-87
2022/05/02 06:41:51;;;;;;;24.95;18.65;;;16.90;47.20;;;;;;5099747;28;20612;-87
2022/05/02 06:44:39;;;;;;;21.60;17.85;;;16.80;46.80;;;;;;5084294;28;20171;-87
2022/05/02 06:47:20;;;;;;;24.60;19.08;;;17.00;46.50;;;;;;5087452;28;20163;-87
2022/05/02 06:49:51;;;;;;;25.10;19.88;;;17.20;45.90;;;;;;5087679;28;20178;-87
2022/05/02 06:52:24;;;;;;;23.17;18.75;;;17.30;45.60;;;;;;5088629;28;20188;-87
2022/05/02 06:55:08;;;;;;;21.48;17.55;;;16.80;46.30;;;;;;5080251;28;20217;-87
2022/05/02 06:57:52;;;;;;;28.92;20.45;;;17.00;45.70;;;;;;5078180;28;20182;-88
2022/05/02 07:00:20;;;;;;;29.00;18.35;;;17.10;46.00;;;;;;5078450;28;20329;-85
2022/05/02 07:03:01;;;;;;;21.00;18.08;;;17.30;44.50;;;;;;5097632;28;20199;-85
2022/05/02 07:05:35;;;;;;;19.00;17.05;;;17.30;43.80;;;;;;5078497;28;20597;-85
2022/05/02 07:08:05;;;;;;;19.20;17.15;;;17.20;43.70;;;;;;5079138;28;20172;-85
2022/05/02 07:10:38;;;;;;;20.42;17.23;;;17.10;43.90;;;;;;5101190;28;20214;-85
2022/05/02 07:13:38;;;;;;;21.33;16.52;;;16.90;44.20;;;;;;5103468;28;20195;-88
2022/05/02 07:16:18;;;;;;;21.20;16.88;;;16.60;45.00;;;;;;5087337;28;20616;-85
2022/05/02 07:19:21;;;;;;;25.95;17.88;;;16.10;45.70;;;;;;5092085;28;20183;-86
2022/05/02 07:22:03;;;;;;;23.80;18.00;;;15.80;46.50;;;;;;5087369;28;20203;-85
2022/05/02 07:24:50;;;;;;;25.08;18.98;;;15.50;47.50;;;;;;5086197;28;20199;-84
2022/05/02 07:27:31;;;;;;;22.27;18.02;;;15.20;48.60;;;;;;5083964;28;20179;-85
2022/05/02 07:29:58;;;;;;;26.23;19.77;;;14.90;49.00;;;;;;5083600;28;20191;-84
2022/05/02 07:32:26;;;;;;;20.52;16.30;;;14.80;49.60;;;;;;5105706;28;20280;-84
2022/05/02 07:34:54;;;;;;;23.40;18.15;;;14.70;50.20;;;;;;5086661;28;20174;-84
2022/05/02 07:37:24;;;;;;;26.80;18.25;;;14.70;51.10;;;;;;5099126;28;20172;-84
2022/05/02 07:39:51;;;;;;;22.08;16.92;;;14.60;50.30;;;;;;5100531;28;20211;-84
2022/05/02 07:42:20;;;;;;;23.67;17.38;;;14.60;50.70;;;;;;5101072;28;20559;-84
2022/05/02 07:44:49;;;;;;;23.77;17.92;;;14.60;50.60;;;;;;5085979;28;20183;-85
2022/05/02 07:47:17;;;;;;;22.73;18.42;;;14.50;50.80;;;;;;5106050;28;20538;-83
2022/05/02 07:49:50;;;;;;;21.35;17.13;;;14.50;50.60;;;;;;5089022;28;20171;-86
2022/05/02 07:52:24;;;;;;;23.15;18.73;;;14.50;50.50;;;;;;5086408;28;20211;-84
2022/05/02 07:54:52;;;;;;;26.98;19.50;;;14.50;50.30;;;;;;5089669;28;20156;-84
2022/05/02 07:57:21;;;;;;;21.48;16.15;;;14.50;49.80;;;;;;5106271;28;20220;-86
2022/05/02 07:59:51;;;;;;;22.25;18.67;;;14.50;49.80;;;;;;5088257;28;20178;-84
2022/05/02 08:02:18;;;;;;;22.90;16.48;;;14.50;49.20;;;;;;5086296;28;20249;-84
2022/05/02 08:04:45;;;;;;;22.02;17.35;;;14.50;49.40;;;;;;5081727;28;20211;-85
2022/05/02 08:07:23;;;;;;;17.83;15.15;;;14.60;49.10;;;;;;5100587;28;20243;-85
2022/05/02 08:10:09;;;;;;;18.13;16.02;;;14.70;48.50;;;;;;5082789;28;20179;-84
2022/05/02 08:12:57;;;;;;;25.60;17.08;;;14.70;47.90;;;;;;5081716;28;20242;-84
2022/05/02 08:15:25;;;;;;;21.10;15.05;;;14.50;48.80;;;;;;5100489;28;20164;-84
2022/05/02 08:18:09;;;;;;;22.35;14.40;;;14.50;49.00;;;;;;5082554;28;20203;-84
2022/05/02 08:20:35;;;;;;;19.77;15.52;;;14.60;48.90;;;;;;5081916;28;20194;-84
2022/05/02 08:29:50;;;;;;;15.73;13.15;;;15.00;46.70;;;;;;5100784;28;20164;-84
2022/05/02 08:32:26;;;;;;;18.98;13.32;;;15.10;46.10;;;;;;5079283;28;20233;-84
2022/05/02 08:35:16;;;;;;;21.48;14.38;;;15.10;46.10;;;;;;5083371;28;20624;-84
2022/05/02 08:38:31;;;;;;;16.63;13.68;;;15.10;45.80;;;;;;5101374;28;20223;-83
2022/05/02 08:41:18;;;;;;;24.60;14.32;;;15.10;45.60;;;;;;5082085;28;20282;-86
2022/05/02 08:44:05;;;;;;;25.10;13.57;;;15.20;45.40;;;;;;5083836;28;20163;-85
2022/05/02 08:46:50;;;;;;;20.95;15.52;;;15.20;45.60;;;;;;5085249;28;20257;-88
2022/05/02 08:50:12;;;;;;;18.95;14.25;;;15.30;45.50;;;;;;5101616;28;20549;-84
2022/05/02 08:53:17;;;;;;;17.30;12.90;;;15.20;45.40;;;;;;5001333;28;20233;-84
2022/05/02 08:55:59;;;;;;;14.63;11.43;;;15.20;45.20;;;;;;5003079;28;20182;-84
2022/05/02 08:58:51;;;;;;;15.90;13.32;;;15.20;45.00;;;;;;5081560;28;20254;-85
2022/05/02 09:01:45;;;;;;;16.05;13.98;;;15.40;44.00;;;;;;5083427;28;20192;-84
2022/05/02 09:04:33;;;;;;;18.50;13.63;;;15.40;43.70;;;;;;5085575;28;20179;-84
2022/05/02 09:07:21;;;;;;;16.42;12.68;;;15.40;43.80;;;;;;5085197;28;20172;-85
2022/05/02 09:10:10;;;;;;;12.68;10.77;;;15.40;43.70;;;;;;5085504;28;20180;-85
2022/05/02 09:12:45;;;;;;;15.27;11.90;;;15.40;43.50;;;;;;5088629;28;20207;-85
2022/05/02 09:15:41;;;;;;;14.27;11.65;;;15.40;43.40;;;;;;5109205;28;20243;-84
2022/05/02 09:18:18;;;;;;;16.00;11.75;;;15.50;42.90;;;;;;5087664;28;20168;-84
2022/05/02 09:20:54;;;;;;;17.85;13.15;;;15.60;42.80;;;;;;5107735;28;20195;-84
2022/05/02 09:23:26;;;;;;;15.77;11.93;;;15.70;42.90;;;;;;5093424;28;20262;-87
2022/05/02 09:26:06;;;;;;;14.50;12.38;;;15.70;41.50;;;;;;5094673;28;20194;-86
2022/05/02 09:28:48;;;;;;;15.77;12.23;;;15.70;42.30;;;;;;5115853;28;20179;-84
2022/05/02 09:31:24;;;;;;;15.18;9.90;;;15.60;42.20;;;;;;5073236;28;20207;-84
2022/05/02 09:34:18;;;;;;;15.65;11.07;;;15.70;42.50;;;;;;5086556;28;20167;-84
2022/05/02 09:36:44;;;;;;;12.85;11.15;;;15.80;41.10;;;;;;5085028;28;20164;-85
2022/05/02 09:39:24;;;;;;;15.65;11.68;;;15.90;41.30;;;;;;5084580;28;20172;-85
2022/05/02 09:41:54;;;;;;;14.40;12.25;;;16.00;42.00;;;;;;5083116;28;20206;-85
2022/05/02 09:51:18;;;;;;;13.57;10.30;;;16.10;40.30;;;;;;5095783;28;20203;-86
2022/05/02 09:54:08;;;;;;;15.57;11.10;;;16.00;41.00;;;;;;5052642;28;20670;-86
2022/05/02 09:56:45;;;;;;;11.63;10.27;;;16.00;39.70;;;;;;5063527;28;20181;-87
2022/05/02 09:59:24;;;;;;;12.70;10.85;;;16.10;39.50;;;;;;5059198;28;20264;-86
2022/05/02 10:01:57;;;;;;;12.45;10.05;;;16.10;39.40;;;;;;5043684;28;20203;-86
2022/05/02 10:04:32;;;;;;;10.60;9.60;;;16.20;39.10;;;;;;5058870;28;20180;-86
2022/05/02 10:07:09;;;;;;;16.52;10.73;;;16.20;38.80;;;;;;5070984;28;20176;-87
2022/05/02 10:09:45;;;;;;;15.48;9.93;;;16.10;39.10;;;;;;5065722;28;20180;-86
2022/05/02 10:12:26;;;;;;;12.60;10.05;;;15.90;38.80;;;;;;5090316;28;20230;-86
2022/05/02 10:15:03;;;;;;;11.63;10.10;;;15.70;39.40;;;;;;5070700;28;20161;-86
2022/05/02 10:17:47;;;;;;;13.88;12.43;;;15.90;40.10;;;;;;5065129;28;20180;-86
2022/05/02 10:20:18;;;;;;;14.00;11.93;;;15.80;40.90;;;;;;5061044;28;20572;-86
2022/05/02 10:23:11;;;;;;;11.32;10.15;;;15.80;40.90;;;;;;5056012;28;20211;-87
2022/05/02 10:25:41;;;;;;;11.75;10.52;;;16.00;40.50;;;;;;5082631;28;20189;-86
2022/05/02 10:28:29;;;;;;;13.00;9.85;;;15.90;40.90;;;;;;5062886;28;20184;-86
2022/05/02 10:31:04;;;;;;;11.95;10.25;;;16.10;39.40;;;;;;5078971;28;20850;-87
2022/05/02 10:33:34;;;;;;;12.75;10.25;;;16.30;38.80;;;;;;5080292;28;20235;-86
2022/05/02 10:36:04;;;;;;;19.85;11.77;;;16.50;38.50;;;;;;5079889;28;20176;-86
2022/05/02 10:38:31;;;;;;;15.10;10.23;;;16.60;37.90;;;;;;5060408;28;20172;-86
2022/05/02 10:41:15;;;;;;;13.50;11.02;;;16.70;37.80;;;;;;5058344;28;20267;-86
2022/05/02 10:43:52;;;;;;;15.65;11.05;;;16.70;38.00;;;;;;5078560;28;20164;-86
2022/05/02 10:46:21;;;;;;;15.80;11.50;;;16.70;38.40;;;;;;5060997;28;20672;-86
2022/05/02 10:49:02;;;;;;;12.02;10.82;;;16.80;38.50;;;;;;5062178;28;20176;-87
2022/05/02 10:51:46;;;;;;;13.50;10.45;;;16.80;38.30;;;;;;5060519;28;20192;-86
2022/05/02 10:54:31;;;;;;;13.00;10.50;;;16.90;37.80;;;;;;5080571;28;20184;-85
2022/05/02 10:57:12;;;;;;;11.80;10.32;;;16.60;38.50;;;;;;5063551;28;20164;-86
2022/05/02 10:59:44;;;;;;;13.52;10.90;;;16.80;38.20;;;;;;5063370;28;20195;-86
2022/05/02 11:02:24;;;;;;;12.05;10.85;;;16.80;38.40;;;;;;5063077;28;20196;-87
2022/05/02 11:05:04;;;;;;;13.50;9.98;;;16.80;38.00;;;;;;5080778;28;20247;-86
2022/05/02 11:07:50;;;;;;;13.52;11.07;;;16.80;38.30;;;;;;5062640;28;20203;-87
2022/05/02 11:10:20;;;;;;;11.55;9.50;;;16.90;39.00;;;;;;5079701;28;20254;-86
2022/05/02 11:13:02;;;;;;;12.70;10.82;;;17.00;38.40;;;;;;5080003;28;20200;-86
2022/05/02 11:16:02;;;;;;;11.15;10.00;;;17.10;37.90;;;;;;5062403;28;20165;-87
2022/05/02 11:21:44;;;;;;;17.00;10.88;;;17.30;37.20;;;;;;5080235;28;20638;-87
2022/05/02 11:24:35;;;;;;;14.25;11.60;;;17.30;37.40;;;;;;5037812;28;20247;-86
2022/05/02 11:27:01;;;;;;;14.45;11.40;;;17.30;37.70;;;;;;5042915;28;20552;-86
2022/05/02 11:29:36;;;;;;;14.00;11.73;;;17.40;37.40;;;;;;5039660;28;20169;-86
2022/05/02 11:32:15;;;;;;;15.48;12.02;;;17.30;37.00;;;;;;5038127;28;20767;-86
2022/05/02 11:34:56;;;;;;;13.20;10.85;;;17.40;37.20;;;;;;5056140;28;20235;-86
2022/05/02 11:37:41;;;;;;;13.85;11.00;;;17.30;37.50;;;;;;5056629;28;20173;-87
2022/05/02 11:40:07;;;;;;;17.52;10.95;;;17.30;38.10;;;;;;5038001;28;20245;-87
2022/05/02 11:42:33;;;;;;;13.27;9.90;;;17.30;38.00;;;;;;5037873;28;20690;-87
2022/05/02 11:45:11;;;;;;;14.35;10.85;;;17.30;37.50;;;;;;5054035;28;20423;-87
2022/05/02 11:47:40;;;;;;;13.23;9.50;;;17.00;37.60;;;;;;5058865;28;20191;-86
2022/05/02 11:50:07;;;;;;;12.88;9.32;;;16.90;37.90;;;;;;5073803;28;20189;-85
2022/05/02 11:52:36;;;;;;;11.65;8.48;;;17.10;37.70;;;;;;5044430;28;20653;-86
2022/05/02 11:55:04;;;;;;;9.30;8.05;;;16.90;38.20;;;;;;5079603;28;20179;-84
2022/05/02 11:57:39;;;;;;;10.93;8.80;;;17.10;37.20;;;;;;5050074;28;20281;-86
2022/05/02 12:00:09;;;;;;;12.30;8.35;;;17.40;36.20;;;;;;5086163;28;20243;-86
2022/05/02 12:02:41;;;;;;;13.13;9.60;;;17.60;35.60;;;;;;5060429;28;20208;-87
2022/05/02 12:05:18;;;;;;;9.85;8.82;;;17.60;35.90;;;;;;5073904;28;20499;-87
2022/05/02 12:07:52;;;;;;;12.50;8.98;;;17.60;35.80;;;;;;5075473;28;20204;-87
2022/05/02 12:10:19;;;;;;;10.30;8.35;;;17.60;35.60;;;;;;5057161;28;20253;-86
2022/05/02 12:12:51;;;;;;;14.85;9.93;;;17.50;36.50;;;;;;5078659;28;20266;-84
2022/05/02 12:15:18;;;;;;;11.23;9.95;;;17.70;35.90;;;;;;5078944;28;20152;-86
2022/05/02 12:18:06;;;;;;;12.85;8.95;;;17.90;35.80;;;;;;5061725;28;20657;-86
2022/05/02 12:20:35;;;;;;;10.63;8.73;;;17.90;35.60;;;;;;5029986;28;20207;-86
2022/05/02 12:23:12;;;;;;;12.98;9.90;;;18.00;35.50;;;;;;5074598;28;20196;-87
2022/05/02 12:25:54;;;;;;;10.10;8.27;;;18.00;35.60;;;;;;5063611;28;20192;-87
2022/05/02 12:28:40;;;;;;;9.82;8.30;;;17.90;36.80;;;;;;5068053;28;20191;-87
2022/05/02 12:31:08;;;;;;;10.73;8.60;;;17.80;36.40;;;;;;5091711;28;20203;-86
2022/05/02 12:33:40;;;;;;;10.10;8.75;;;18.10;35.50;;;;;;5071875;28;20262;-86
2022/05/02 12:36:18;;;;;;;10.00;8.93;;;18.30;35.30;;;;;;5064521;28;20180;-87
2022/05/02 12:39:18;;;;;;;12.45;8.65;;;18.40;34.50;;;;;;5063915;28;20181;-85
2022/05/02 12:41:49;;;;;;;8.65;6.60;;;18.50;34.30;;;;;;5065259;28;20263;-86
2022/05/02 12:44:16;;;;;;;8.93;7.03;;;18.40;34.50;;;;;;5065209;28;20188;-87
2022/05/02 12:47:04;;;;;;;9.18;7.13;;;18.30;34.30;;;;;;5060796;28;20180;-87
2022/05/02 12:49:41;;;;;;;9.60;7.97;;;18.10;35.40;;;;;;5077299;28;20161;-87
2022/05/02 12:52:07;;;;;;;11.98;9.07;;;17.90;35.80;;;;;;5061105;28;20215;-87
2022/05/02 12:54:33;;;;;;;14.27;9.20;;;17.80;35.90;;;;;;5081001;28;20203;-86
2022/05/02 13:00:41;;;;;;;11.02;8.60;;;18.20;35.40;;;;;;5075900;28;20159;-86
2022/05/02 13:02:51;;;;;;;9.18;8.27;;;18.40;35.00;;;;;;5057343;28;20193;-86
2022/05/02 13:05:19;;;;;;;8.27;7.38;;;18.70;34.30;;;;;;5059610;28;20172;-87
2022/05/02 13:07:53;;;;;;;8.23;7.32;;;18.70;33.90;;;;;;5067516;28;20177;-85
2022/05/02 13:10:25;;;;;;;9.50;7.47;;;18.80;33.40;;;;;;5066680;28;20200;-86
2022/05/02 13:13:11;;;;;;;9.30;8.32;;;18.70;33.80;;;;;;5089059;28;20221;-85
2022/05/02 13:15:45;;;;;;;9.23;8.25;;;18.60;33.60;;;;;;5072342;28;20179;-86
2022/05/02 13:18:14;;;;;;;8.05;7.20;;;18.50;33.60;;;;;;5067109;28;20180;-86
2022/05/02 13:20:44;;;;;;;11.27;8.43;;;18.40;33.90;;;;;;5064672;28;20188;-86
2022/05/02 13:23:14;;;;;;;8.60;7.80;;;18.50;33.80;;;;;;5075563;28;20183;-86
2022/05/02 13:26:26;;;;;;;8.20;7.22;;;18.50;33.60;;;;;;5071804;28;20231;-87
2022/05/02 13:29:16;;;;;;;7.93;7.07;;;18.50;33.50;;;;;;5091421;28;20184;-86